createdAt,value
2022-09-29T00:00:41.589Z,7.50
2022-09-29T00:01:41.578Z,7.49
2022-09-29T00:02:41.558Z,7.46
2022-09-29T00:03:41.535Z,7.43
2022-09-29T00:04:41.502Z,7.42
2022-09-29T00:05:41.493Z,7.37
2022-09-29T00:06:41.482Z,7.37
2022-09-29T00:07:41.470Z,7.40
2022-09-29T00:08:41.452Z,7.36
2022-09-29T00:09:41.444Z,7.36
2022-09-29T00:10:41.423Z,7.29
2022-09-29T00:11:41.423Z,7.29
2022-09-29T00:12:41.403Z,7.29
2022-09-29T00:13:41.383Z,7.25
2022-09-29T00:14:45.654Z,7.25
2022-09-29T00:15:42.364Z,7.25
2022-09-29T00:16:41.510Z,7.24
2022-09-29T00:17:57.881Z,7.22
2022-09-29T00:18:42.317Z,7.24
2022-09-29T00:19:41.705Z,7.21
2022-09-29T00:20:41.295Z,7.18
2022-09-29T00:21:41.276Z,7.16
2022-09-29T00:22:41.256Z,7.15
2022-09-29T00:23:41.246Z,7.18
2022-09-29T00:24:41.416Z,7.15
2022-09-29T00:25:41.227Z,7.15
2022-09-29T00:26:41.216Z,7.11
2022-09-29T00:27:41.196Z,7.06
2022-09-29T00:28:42.135Z,7.06
2022-09-29T00:29:41.203Z,7.04
2022-09-29T00:30:41.157Z,6.99
2022-09-29T00:31:41.213Z,6.96
2022-09-29T00:32:41.138Z,6.92
2022-09-29T00:33:41.118Z,6.91
2022-09-29T00:34:42.030Z,6.86
2022-09-29T00:35:41.099Z,6.86
2022-09-29T00:36:41.079Z,6.78
2022-09-29T00:37:41.298Z,6.82
2022-09-29T00:38:42.068Z,6.82
2022-09-29T00:39:41.296Z,6.79
2022-09-29T00:40:41.077Z,6.79
2022-09-29T00:41:41.009Z,6.78
2022-09-29T00:42:40.989Z,6.78
2022-09-29T00:43:43.880Z,6.78
2022-09-29T00:44:42.074Z,6.75
2022-09-29T00:45:41.339Z,6.79
2022-09-29T00:46:40.939Z,6.75
2022-09-29T00:47:41.280Z,6.74
2022-09-29T00:48:42.052Z,6.75
2022-09-29T00:49:40.904Z,6.75
2022-09-29T00:50:40.899Z,6.75
2022-09-29T00:51:41.841Z,6.74
2022-09-29T00:52:40.861Z,6.73
2022-09-29T00:53:41.361Z,6.73
2022-09-29T00:54:40.831Z,6.71
2022-09-29T00:55:40.913Z,6.71
2022-09-29T00:56:40.812Z,6.65
2022-09-29T00:57:40.802Z,6.67
2022-09-29T00:58:43.283Z,6.64
2022-09-29T00:59:40.772Z,6.65
2022-09-29T01:00:42.332Z,6.65
2022-09-29T01:01:41.069Z,6.64
2022-09-29T01:02:41.833Z,6.61
2022-09-29T01:03:41.104Z,6.55
2022-09-29T01:04:40.874Z,6.53
2022-09-29T01:05:40.694Z,6.53
2022-09-29T01:06:40.925Z,6.49
2022-09-29T01:07:41.614Z,6.45
2022-09-29T01:08:43.584Z,6.35
2022-09-29T01:09:40.774Z,6.37
2022-09-29T01:10:40.625Z,6.34
2022-09-29T01:11:43.415Z,6.34
2022-09-29T01:12:45.755Z,6.31
2022-09-29T01:13:41.935Z,6.32
2022-09-29T01:14:40.695Z,6.32
2022-09-29T01:15:45.647Z,6.31
2022-09-29T01:16:41.378Z,6.31
2022-09-29T01:17:41.056Z,6.34
2022-09-29T01:18:43.397Z,6.35
2022-09-29T01:19:43.693Z,6.32
2022-09-29T01:20:40.882Z,6.34
2022-09-29T01:21:42.707Z,6.35
2022-09-29T01:22:42.976Z,6.35
2022-09-29T01:23:41.227Z,6.37
2022-09-29T01:24:40.496Z,6.42
2022-09-29T01:25:47.488Z,6.40
2022-09-29T01:26:42.618Z,6.45
2022-09-29T01:27:40.859Z,6.43
2022-09-29T01:28:49.400Z,6.46
2022-09-29T01:29:47.619Z,6.52
2022-09-29T01:30:50.513Z,6.53
2022-09-29T01:31:42.064Z,6.56
2022-09-29T01:32:41.285Z,6.60
2022-09-29T01:33:40.329Z,6.64
2022-09-29T01:34:41.339Z,6.63
2022-09-29T01:35:42.680Z,6.68
2022-09-29T01:36:46.069Z,6.71
2022-09-29T01:37:40.687Z,6.71
2022-09-29T01:38:43.520Z,6.79
2022-09-29T01:39:40.251Z,6.79
2022-09-29T01:40:42.090Z,6.83
2022-09-29T01:41:41.291Z,6.83
2022-09-29T01:42:40.522Z,6.83
2022-09-29T01:43:40.198Z,6.91
2022-09-29T01:44:45.172Z,6.92
2022-09-29T01:45:40.202Z,6.96
2022-09-29T01:46:40.164Z,6.96
2022-09-29T01:47:40.152Z,6.97
2022-09-29T01:48:40.131Z,6.99
2022-09-29T01:49:40.123Z,6.99
2022-09-29T01:50:40.142Z,7.01
2022-09-29T01:51:41.442Z,7.04
2022-09-29T01:52:40.090Z,7.07
2022-09-29T01:53:40.405Z,7.06
2022-09-29T01:54:40.054Z,7.07
2022-09-29T01:55:40.056Z,7.11
2022-09-29T01:56:40.029Z,7.13
2022-09-29T01:57:40.964Z,7.18
2022-09-29T01:58:40.009Z,7.15
2022-09-29T01:59:39.985Z,7.18
2022-09-29T02:00:40.047Z,7.16
2022-09-29T02:01:40.026Z,7.15
2022-09-29T02:02:39.982Z,7.15
2022-09-29T02:03:39.945Z,7.18
2022-09-29T02:04:39.925Z,7.11
2022-09-29T02:05:39.916Z,7.13
2022-09-29T02:06:39.906Z,7.13
2022-09-29T02:07:39.883Z,7.15
2022-09-29T02:08:40.822Z,7.13
2022-09-29T02:09:39.859Z,7.16
2022-09-29T02:10:39.847Z,7.15
2022-09-29T02:11:40.777Z,7.13
2022-09-29T02:12:39.817Z,7.11
2022-09-29T02:13:39.803Z,7.10
2022-09-29T02:14:39.985Z,7.10
2022-09-29T02:15:39.777Z,7.11
2022-09-29T02:16:39.788Z,7.13
2022-09-29T02:17:39.748Z,7.10
2022-09-29T02:18:39.738Z,7.13
2022-09-29T02:19:39.720Z,7.18
2022-09-29T02:20:39.719Z,7.18
2022-09-29T02:21:39.689Z,7.19
2022-09-29T02:22:39.679Z,7.21
2022-09-29T02:23:39.669Z,7.19
2022-09-29T02:24:39.649Z,7.19
2022-09-29T02:25:39.654Z,7.21
2022-09-29T02:26:39.628Z,7.22
2022-09-29T02:27:39.613Z,7.21
2022-09-29T02:28:39.600Z,7.22
2022-09-29T02:29:39.581Z,7.22
2022-09-29T02:30:39.581Z,7.26
2022-09-29T02:31:39.599Z,7.31
2022-09-29T02:32:39.540Z,7.26
2022-09-29T02:33:39.543Z,7.26
2022-09-29T02:34:39.514Z,7.26
2022-09-29T02:35:39.502Z,7.26
2022-09-29T02:36:39.493Z,7.28
2022-09-29T02:37:39.474Z,7.28
2022-09-29T02:38:39.464Z,7.24
2022-09-29T02:39:39.451Z,7.22
2022-09-29T02:40:39.499Z,7.18
2022-09-29T02:41:39.422Z,7.13
2022-09-29T02:42:39.413Z,7.10
2022-09-29T02:43:39.394Z,7.11
2022-09-29T02:44:39.384Z,7.07
2022-09-29T02:45:39.417Z,7.06
2022-09-29T02:46:39.356Z,7.01
2022-09-29T02:47:39.345Z,6.99
2022-09-29T02:48:39.340Z,6.96
2022-09-29T02:49:39.305Z,6.96
2022-09-29T02:50:39.321Z,6.91
2022-09-29T02:51:39.284Z,6.88
2022-09-29T02:52:39.275Z,6.89
2022-09-29T02:53:39.266Z,6.83
2022-09-29T02:54:39.255Z,6.79
2022-09-29T02:55:39.242Z,6.82
2022-09-29T02:56:39.228Z,6.82
2022-09-29T02:57:39.197Z,6.78
2022-09-29T02:58:39.187Z,6.74
2022-09-29T02:59:39.176Z,6.78
2022-09-29T03:00:39.208Z,6.74
2022-09-29T03:01:39.147Z,6.73
2022-09-29T03:02:39.140Z,6.74
2022-09-29T03:03:39.201Z,6.71
2022-09-29T03:04:39.117Z,6.71
2022-09-29T03:05:39.112Z,6.71
2022-09-29T03:06:39.102Z,6.67
2022-09-29T03:07:39.073Z,6.68
2022-09-29T03:08:39.068Z,6.68
2022-09-29T03:09:39.058Z,6.70
2022-09-29T03:10:39.053Z,6.67
2022-09-29T03:11:39.018Z,6.70
2022-09-29T03:12:39.014Z,6.70
2022-09-29T03:13:39.001Z,6.65
2022-09-29T03:14:38.991Z,6.67
2022-09-29T03:15:38.967Z,6.67
2022-09-29T03:16:38.993Z,6.65
2022-09-29T03:17:39.891Z,6.65
2022-09-29T03:18:38.931Z,6.67
2022-09-29T03:19:38.921Z,6.67
2022-09-29T03:20:38.903Z,6.68
2022-09-29T03:21:38.881Z,6.67
2022-09-29T03:22:38.872Z,6.70
2022-09-29T03:23:38.858Z,6.70
2022-09-29T03:24:38.862Z,6.70
2022-09-29T03:25:38.831Z,6.70
2022-09-29T03:26:38.822Z,6.73
2022-09-29T03:27:38.803Z,6.75
2022-09-29T03:28:38.803Z,6.74
2022-09-29T03:29:38.790Z,6.75
2022-09-29T03:30:38.783Z,6.78
2022-09-29T03:31:38.795Z,6.78
2022-09-29T03:32:38.764Z,6.74
2022-09-29T03:33:38.734Z,6.79
2022-09-29T03:34:38.730Z,6.74
2022-09-29T03:35:41.388Z,6.68
2022-09-29T03:36:39.694Z,6.71
2022-09-29T03:37:38.680Z,6.68
2022-09-29T03:38:38.665Z,6.68
2022-09-29T03:39:38.655Z,6.68
2022-09-29T03:40:38.676Z,6.65
2022-09-29T03:41:38.615Z,6.63
2022-09-29T03:42:38.635Z,6.60
2022-09-29T03:43:38.595Z,6.57
2022-09-29T03:44:38.605Z,6.57
2022-09-29T03:45:38.594Z,6.61
2022-09-29T03:46:38.566Z,6.60
2022-09-29T03:47:38.536Z,6.56
2022-09-29T03:48:38.537Z,6.60
2022-09-29T03:49:38.520Z,6.60
2022-09-29T03:50:38.507Z,6.60
2022-09-29T03:51:38.501Z,6.64
2022-09-29T03:52:38.479Z,6.63
2022-09-29T03:53:38.475Z,6.57
2022-09-29T03:54:38.465Z,6.61
2022-09-29T03:55:38.437Z,6.64
2022-09-29T03:56:38.428Z,6.68
2022-09-29T03:57:38.419Z,6.68
2022-09-29T03:58:38.398Z,6.68
2022-09-29T03:59:42.012Z,6.68
2022-09-29T04:00:39.433Z,6.74
2022-09-29T04:01:38.406Z,6.75
2022-09-29T04:02:38.350Z,6.79
2022-09-29T04:03:38.329Z,6.82
2022-09-29T04:04:38.339Z,6.82
2022-09-29T04:05:39.260Z,6.85
2022-09-29T04:06:38.299Z,6.85
2022-09-29T04:07:38.280Z,6.86
2022-09-29T04:08:38.269Z,6.86
2022-09-29T04:09:38.261Z,6.86
2022-09-29T04:10:38.240Z,6.88
2022-09-29T04:11:39.174Z,6.92
2022-09-29T04:12:38.220Z,6.92
2022-09-29T04:13:38.201Z,6.92
2022-09-29T04:14:38.193Z,6.96
2022-09-29T04:15:38.171Z,6.93
2022-09-29T04:16:38.210Z,6.96
2022-09-29T04:17:38.149Z,6.97
2022-09-29T04:18:38.134Z,6.97
2022-09-29T04:19:38.132Z,6.99
2022-09-29T04:20:38.109Z,6.99
2022-09-29T04:21:38.092Z,6.99
2022-09-29T04:22:38.084Z,6.99
2022-09-29T04:23:38.074Z,7.00
2022-09-29T04:24:38.063Z,6.99
2022-09-29T04:25:38.045Z,7.00
2022-09-29T04:26:38.034Z,6.96
2022-09-29T04:27:38.024Z,6.99
2022-09-29T04:28:38.006Z,7.00
2022-09-29T04:29:38.005Z,6.99
2022-09-29T04:30:37.975Z,6.92
2022-09-29T04:31:38.037Z,6.92
2022-09-29T04:32:37.954Z,6.86
2022-09-29T04:33:37.946Z,6.89
2022-09-29T04:34:37.925Z,6.85
2022-09-29T04:35:37.906Z,6.79
2022-09-29T04:36:37.909Z,6.79
2022-09-29T04:37:37.887Z,6.74
2022-09-29T04:38:37.895Z,6.74
2022-09-29T04:39:37.866Z,6.73
2022-09-29T04:40:37.894Z,6.65
2022-09-29T04:41:37.838Z,6.65
2022-09-29T04:42:37.827Z,6.63
2022-09-29T04:43:37.817Z,6.56
2022-09-29T04:44:37.797Z,6.52
2022-09-29T04:45:37.884Z,6.52
2022-09-29T04:46:37.783Z,6.47
2022-09-29T04:47:38.711Z,6.46
2022-09-29T04:48:37.758Z,6.42
2022-09-29T04:49:37.729Z,6.38
2022-09-29T04:50:37.718Z,6.35
2022-09-29T04:51:37.707Z,6.40
2022-09-29T04:52:37.691Z,6.38
2022-09-29T04:53:37.689Z,6.31
2022-09-29T04:54:38.205Z,6.32
2022-09-29T04:55:37.650Z,6.34
2022-09-29T04:56:37.640Z,6.28
2022-09-29T04:57:37.635Z,6.28
2022-09-29T04:58:37.631Z,6.24
2022-09-29T04:59:37.603Z,6.24
2022-09-29T05:00:37.627Z,6.19
2022-09-29T05:01:37.570Z,6.19
2022-09-29T05:02:37.633Z,6.24
2022-09-29T05:03:37.554Z,6.21
2022-09-29T05:04:37.544Z,6.19
2022-09-29T05:05:37.521Z,6.18
2022-09-29T05:06:37.521Z,6.18
2022-09-29T05:07:37.491Z,6.12
2022-09-29T05:08:37.499Z,6.16
2022-09-29T05:09:37.474Z,6.16
2022-09-29T05:10:37.464Z,6.13
2022-09-29T05:11:37.444Z,6.16
2022-09-29T05:12:37.443Z,6.13
2022-09-29T05:13:37.421Z,6.18
2022-09-29T05:14:37.408Z,6.16
2022-09-29T05:15:37.392Z,6.16
2022-09-29T05:16:37.464Z,6.19
2022-09-29T05:17:37.374Z,6.16
2022-09-29T05:18:37.355Z,6.15
2022-09-29T05:19:37.347Z,6.18
2022-09-29T05:20:44.743Z,6.16
2022-09-29T05:21:38.314Z,6.16
2022-09-29T05:22:37.315Z,6.18
2022-09-29T05:23:37.286Z,6.19
2022-09-29T05:24:37.285Z,6.16
2022-09-29T05:25:37.255Z,6.15
2022-09-29T05:26:37.256Z,6.16
2022-09-29T05:27:37.237Z,6.19
2022-09-29T05:28:37.226Z,6.21
2022-09-29T05:29:37.210Z,6.16
2022-09-29T05:30:37.197Z,6.19
2022-09-29T05:31:37.238Z,6.19
2022-09-29T05:32:37.186Z,6.27
2022-09-29T05:33:37.166Z,6.21
2022-09-29T05:34:37.147Z,6.21
2022-09-29T05:35:37.129Z,6.24
2022-09-29T05:36:37.129Z,6.24
2022-09-29T05:37:37.107Z,6.24
2022-09-29T05:38:37.088Z,6.30
2022-09-29T05:39:37.078Z,6.27
2022-09-29T05:40:37.089Z,6.31
2022-09-29T05:41:37.059Z,6.31
2022-09-29T05:42:37.038Z,6.30
2022-09-29T05:43:37.018Z,6.32
2022-09-29T05:44:37.020Z,6.35
2022-09-29T05:45:37.033Z,6.35
2022-09-29T05:46:37.002Z,6.38
2022-09-29T05:47:36.970Z,6.38
2022-09-29T05:48:37.924Z,6.42
2022-09-29T05:49:36.940Z,6.38
2022-09-29T05:50:36.936Z,6.42
2022-09-29T05:51:36.920Z,6.43
2022-09-29T05:52:36.900Z,6.46
2022-09-29T05:53:36.890Z,6.43
2022-09-29T05:54:36.990Z,6.49
2022-09-29T05:55:36.862Z,6.47
2022-09-29T05:56:36.861Z,6.55
2022-09-29T05:57:36.838Z,6.55
2022-09-29T05:58:36.833Z,6.53
2022-09-29T05:59:36.812Z,6.56
2022-09-29T06:00:36.802Z,6.57
2022-09-29T06:01:36.868Z,6.56
2022-09-29T06:02:36.824Z,6.61
2022-09-29T06:03:36.756Z,6.64
2022-09-29T06:04:40.663Z,6.67
2022-09-29T06:05:36.736Z,6.68
2022-09-29T06:06:36.733Z,6.70
2022-09-29T06:07:36.713Z,6.71
2022-09-29T06:08:36.694Z,6.68
2022-09-29T06:09:36.684Z,6.74
2022-09-29T06:10:36.664Z,6.78
2022-09-29T06:11:36.664Z,6.83
2022-09-29T06:12:36.643Z,6.83
2022-09-29T06:13:36.635Z,6.86
2022-09-29T06:14:36.616Z,6.88
2022-09-29T06:15:36.615Z,6.92
2022-09-29T06:16:36.671Z,6.96
2022-09-29T06:17:36.573Z,6.96
2022-09-29T06:18:36.566Z,7.00
2022-09-29T06:19:36.546Z,7.06
2022-09-29T06:20:36.536Z,7.07
2022-09-29T06:21:36.526Z,7.13
2022-09-29T06:22:36.511Z,7.19
2022-09-29T06:23:36.499Z,7.16
2022-09-29T06:24:36.486Z,7.18
2022-09-29T06:25:36.478Z,7.22
2022-09-29T06:26:36.468Z,7.22
2022-09-29T06:27:36.459Z,7.24
2022-09-29T06:28:36.438Z,7.25
2022-09-29T06:29:36.418Z,7.26
2022-09-29T06:30:36.417Z,7.28
2022-09-29T06:31:36.440Z,7.33
2022-09-29T06:32:36.379Z,7.37
2022-09-29T06:33:36.369Z,7.40
2022-09-29T06:34:36.349Z,7.39
2022-09-29T06:35:37.311Z,7.43
2022-09-29T06:36:36.319Z,7.44
2022-09-29T06:37:36.325Z,7.50
2022-09-29T06:38:36.299Z,7.52
2022-09-29T06:39:36.281Z,7.55
2022-09-29T06:40:36.291Z,7.57
2022-09-29T06:41:36.261Z,7.60
2022-09-29T06:42:36.241Z,7.62
2022-09-29T06:43:36.232Z,7.66
2022-09-29T06:44:36.221Z,7.62
2022-09-29T06:45:36.226Z,7.68
2022-09-29T06:46:36.191Z,7.73
2022-09-29T06:47:36.181Z,7.68
2022-09-29T06:48:36.170Z,7.74
2022-09-29T06:49:36.164Z,7.77
2022-09-29T06:50:37.092Z,7.83
2022-09-29T06:51:45.368Z,7.83
2022-09-29T06:52:37.112Z,7.88
2022-09-29T06:53:38.545Z,7.86
2022-09-29T06:54:36.080Z,7.91
2022-09-29T06:55:36.083Z,7.92
2022-09-29T06:56:36.053Z,7.98
2022-09-29T06:57:36.044Z,7.95
2022-09-29T06:58:36.025Z,8.01
2022-09-29T06:59:36.014Z,8.10
2022-09-29T07:00:36.088Z,8.14
2022-09-29T07:01:36.097Z,8.17
2022-09-29T07:02:36.015Z,8.23
2022-09-29T07:03:35.964Z,8.28
2022-09-29T07:04:35.944Z,8.34
2022-09-29T07:05:35.945Z,8.35
2022-09-29T07:06:35.925Z,8.38
2022-09-29T07:07:35.906Z,8.44
2022-09-29T07:08:35.896Z,8.49
2022-09-29T07:09:35.889Z,8.52
2022-09-29T07:10:35.897Z,8.59
2022-09-29T07:11:35.865Z,8.63
2022-09-29T07:12:35.855Z,8.60
2022-09-29T07:13:35.847Z,8.62
2022-09-29T07:14:35.818Z,8.62
2022-09-29T07:15:35.887Z,8.62
2022-09-29T07:16:35.814Z,8.65
2022-09-29T07:17:36.736Z,8.67
2022-09-29T07:18:35.885Z,8.70
2022-09-29T07:19:35.749Z,8.71
2022-09-29T07:20:35.739Z,8.72
2022-09-29T07:21:36.669Z,8.74
2022-09-29T07:22:35.708Z,8.75
2022-09-29T07:23:35.699Z,8.77
2022-09-29T07:24:35.681Z,8.77
2022-09-29T07:25:51.265Z,8.86
2022-09-29T07:26:36.649Z,8.85
2022-09-29T07:27:35.643Z,8.90
2022-09-29T07:28:35.700Z,8.85
2022-09-29T07:29:35.611Z,8.89
2022-09-29T07:30:40.447Z,8.89
2022-09-29T07:31:47.914Z,8.93
2022-09-29T07:32:36.628Z,8.95
2022-09-29T07:33:39.153Z,8.95
2022-09-29T07:34:35.551Z,8.99
2022-09-29T07:35:39.782Z,9.04
2022-09-29T07:36:36.504Z,9.06
2022-09-29T07:37:35.513Z,9.09
2022-09-29T07:38:35.496Z,9.14
2022-09-29T07:39:35.502Z,9.16
2022-09-29T07:40:35.532Z,9.16
2022-09-29T07:41:35.460Z,9.26
2022-09-29T07:42:35.443Z,9.34
2022-09-29T07:43:35.442Z,9.40
2022-09-29T07:44:35.414Z,9.48
2022-09-29T07:45:35.461Z,9.54
2022-09-29T07:46:35.384Z,9.60
2022-09-29T07:47:35.391Z,9.69
2022-09-29T07:48:35.367Z,9.67
2022-09-29T07:49:35.361Z,9.78
2022-09-29T07:50:35.345Z,9.83
2022-09-29T07:51:35.475Z,9.87
2022-09-29T07:52:35.316Z,9.90
2022-09-29T07:53:35.305Z,9.99
2022-09-29T07:54:35.294Z,10.06
2022-09-29T07:55:35.287Z,10.09
2022-09-29T07:56:35.267Z,10.17
2022-09-29T07:57:35.247Z,10.24
2022-09-29T07:58:35.236Z,10.26
2022-09-29T07:59:35.225Z,10.30
2022-09-29T08:00:35.220Z,10.28
2022-09-29T08:01:35.281Z,10.26
2022-09-29T08:02:35.212Z,10.27
2022-09-29T08:03:35.167Z,10.27
2022-09-29T08:04:35.148Z,10.26
2022-09-29T08:05:35.149Z,10.26
2022-09-29T08:06:35.135Z,10.26
2022-09-29T08:07:35.119Z,10.18
2022-09-29T08:08:35.099Z,10.17
2022-09-29T08:09:40.950Z,10.16
2022-09-29T08:10:47.854Z,10.10
2022-09-29T08:11:36.069Z,10.06
2022-09-29T08:12:42.824Z,10.06
2022-09-29T08:13:36.041Z,10.09
2022-09-29T08:14:35.030Z,10.10
2022-09-29T08:15:35.017Z,10.23
2022-09-29T08:16:35.151Z,10.30
2022-09-29T08:17:34.988Z,10.39
2022-09-29T08:18:34.970Z,10.46
2022-09-29T08:19:34.972Z,10.55
2022-09-29T08:20:34.943Z,10.65
2022-09-29T08:21:34.943Z,10.75
2022-09-29T08:22:34.921Z,10.82
2022-09-29T08:23:34.903Z,10.87
2022-09-29T08:24:34.903Z,10.87
2022-09-29T08:25:34.887Z,10.93
2022-09-29T08:26:42.714Z,10.95
2022-09-29T08:27:45.740Z,10.97
2022-09-29T08:28:35.870Z,10.93
2022-09-29T08:29:44.673Z,10.93
2022-09-29T08:30:35.810Z,11.00
2022-09-29T08:31:34.873Z,11.12
2022-09-29T08:32:34.784Z,11.13
2022-09-29T08:33:34.790Z,11.16
2022-09-29T08:34:34.765Z,11.15
2022-09-29T08:35:34.755Z,11.18
2022-09-29T08:36:34.729Z,11.22
2022-09-29T08:37:35.271Z,11.25
2022-09-29T08:38:34.707Z,11.28
2022-09-29T08:39:35.666Z,11.33
2022-09-29T08:40:34.741Z,11.43
2022-09-29T08:41:34.667Z,11.52
2022-09-29T08:42:44.448Z,11.56
2022-09-29T08:43:35.643Z,11.61
2022-09-29T08:44:38.757Z,11.55
2022-09-29T08:45:34.637Z,11.64
2022-09-29T08:46:36.287Z,11.76
2022-09-29T08:47:45.739Z,11.82
2022-09-29T08:48:37.559Z,11.88
2022-09-29T08:49:34.580Z,12.03
2022-09-29T08:50:34.550Z,12.07
2022-09-29T08:51:41.898Z,12.17
2022-09-29T08:52:47.109Z,12.30
2022-09-29T08:53:35.523Z,12.40
2022-09-29T08:54:39.269Z,12.50
2022-09-29T08:55:35.481Z,12.59
2022-09-29T08:56:34.481Z,12.71
2022-09-29T08:57:34.461Z,12.76
2022-09-29T08:58:34.442Z,12.72
2022-09-29T08:59:34.449Z,12.73
2022-09-29T09:00:34.412Z,12.80
2022-09-29T09:01:34.454Z,12.86
2022-09-29T09:02:34.441Z,12.95
2022-09-29T09:03:34.384Z,12.99
2022-09-29T09:04:34.373Z,13.01
2022-09-29T09:05:34.353Z,13.04
2022-09-29T09:06:34.343Z,13.08
2022-09-29T09:07:34.334Z,13.19
2022-09-29T09:08:34.530Z,13.24
2022-09-29T09:09:34.310Z,13.29
2022-09-29T09:10:34.284Z,13.36
2022-09-29T09:11:34.277Z,13.39
2022-09-29T09:12:34.265Z,13.40
2022-09-29T09:13:34.255Z,13.32
2022-09-29T09:14:34.266Z,13.29
2022-09-29T09:15:34.227Z,13.27
2022-09-29T09:16:34.269Z,13.35
2022-09-29T09:17:34.196Z,13.40
2022-09-29T09:18:34.186Z,13.39
2022-09-29T09:19:34.181Z,13.53
2022-09-29T09:20:34.148Z,13.53
2022-09-29T09:21:34.137Z,13.43
2022-09-29T09:22:34.146Z,13.40
2022-09-29T09:23:34.128Z,13.40
2022-09-29T09:24:34.128Z,13.42
2022-09-29T09:25:34.089Z,13.55
2022-09-29T09:26:34.071Z,13.64
2022-09-29T09:27:34.067Z,13.75
2022-09-29T09:28:34.059Z,13.83
2022-09-29T09:29:37.388Z,13.86
2022-09-29T09:30:34.102Z,13.98
2022-09-29T09:31:34.021Z,14.11
2022-09-29T09:32:34.002Z,14.16
2022-09-29T09:33:33.990Z,14.15
2022-09-29T09:34:42.636Z,14.15
2022-09-29T09:35:35.051Z,14.12
2022-09-29T09:36:34.659Z,14.09
2022-09-29T09:37:33.947Z,14.09
2022-09-29T09:38:33.926Z,14.12
2022-09-29T09:39:33.923Z,14.01
2022-09-29T09:40:33.893Z,14.00
2022-09-29T09:41:36.102Z,14.05
2022-09-29T09:42:33.871Z,14.09
2022-09-29T09:43:33.867Z,14.12
2022-09-29T09:44:33.854Z,14.13
2022-09-29T09:45:33.868Z,14.21
2022-09-29T09:46:34.806Z,14.33
2022-09-29T09:47:33.807Z,14.45
2022-09-29T09:48:33.794Z,14.61
2022-09-29T09:49:33.786Z,14.70
2022-09-29T09:50:33.766Z,14.86
2022-09-29T09:51:33.807Z,14.90
2022-09-29T09:52:33.736Z,14.85
2022-09-29T09:53:33.727Z,14.71
2022-09-29T09:54:33.727Z,14.82
2022-09-29T09:55:33.698Z,14.87
2022-09-29T09:56:33.687Z,14.92
2022-09-29T09:57:33.688Z,14.95
2022-09-29T09:58:34.616Z,14.95
2022-09-29T09:59:33.659Z,15.03
2022-09-29T10:00:33.637Z,15.15
2022-09-29T10:01:33.721Z,15.32
2022-09-29T10:02:33.625Z,15.40
2022-09-29T10:03:33.611Z,15.52
2022-09-29T10:04:33.591Z,15.63
2022-09-29T10:05:33.609Z,15.84
2022-09-29T10:06:33.556Z,16.02
2022-09-29T10:07:33.664Z,16.14
2022-09-29T10:08:33.542Z,16.25
2022-09-29T10:09:33.540Z,16.02
2022-09-29T10:10:33.506Z,15.99
2022-09-29T10:11:33.491Z,16.18
2022-09-29T10:12:33.482Z,16.26
2022-09-29T10:13:33.662Z,16.24
2022-09-29T10:14:33.466Z,16.18
2022-09-29T10:15:33.441Z,16.21
2022-09-29T10:16:33.490Z,16.37
2022-09-29T10:17:34.245Z,16.40
2022-09-29T10:18:33.397Z,16.47
2022-09-29T10:19:33.396Z,16.59
2022-09-29T10:20:33.365Z,16.77
2022-09-29T10:21:33.366Z,16.87
2022-09-29T10:22:33.336Z,17.01
2022-09-29T10:23:33.331Z,17.02
2022-09-29T10:24:34.268Z,16.92
2022-09-29T10:25:33.307Z,16.90
2022-09-29T10:26:33.288Z,16.74
2022-09-29T10:27:34.228Z,16.77
2022-09-29T10:28:33.360Z,16.74
2022-09-29T10:29:33.250Z,16.58
2022-09-29T10:30:33.323Z,16.47
2022-09-29T10:31:33.242Z,16.34
2022-09-29T10:32:33.210Z,16.39
2022-09-29T10:33:33.221Z,16.52
2022-09-29T10:34:33.181Z,16.73
2022-09-29T10:35:33.336Z,16.88
2022-09-29T10:36:33.162Z,17.09
2022-09-29T10:37:33.152Z,17.24
2022-09-29T10:38:33.150Z,17.12
2022-09-29T10:39:33.121Z,17.07
2022-09-29T10:40:33.102Z,16.65
2022-09-29T10:41:33.094Z,16.67
2022-09-29T10:42:33.097Z,16.91
2022-09-29T10:43:33.084Z,17.09
2022-09-29T10:44:33.053Z,17.12
2022-09-29T10:45:33.043Z,17.27
2022-09-29T10:46:33.025Z,17.34
2022-09-29T10:47:33.013Z,17.25
2022-09-29T10:48:33.014Z,17.22
2022-09-29T10:49:32.985Z,17.31
2022-09-29T10:50:36.552Z,17.31
2022-09-29T10:51:32.956Z,17.50
2022-09-29T10:52:32.957Z,17.63
2022-09-29T10:53:32.946Z,17.59
2022-09-29T10:54:32.937Z,17.28
2022-09-29T10:55:33.857Z,17.12
2022-09-29T10:56:32.904Z,16.59
2022-09-29T10:57:33.828Z,16.32
2022-09-29T10:58:57.717Z,16.17
2022-09-29T10:59:33.856Z,15.98
2022-09-29T11:00:32.860Z,15.81
2022-09-29T11:01:32.855Z,15.62
2022-09-29T11:02:32.887Z,15.43
2022-09-29T11:03:32.809Z,15.26
2022-09-29T11:04:32.792Z,15.15
2022-09-29T11:05:32.771Z,14.93
2022-09-29T11:06:33.856Z,14.69
2022-09-29T11:07:32.770Z,14.46
2022-09-29T11:08:32.748Z,14.37
2022-09-29T11:09:32.760Z,14.38
2022-09-29T11:10:32.713Z,14.33
2022-09-29T11:11:32.695Z,14.27
2022-09-29T11:12:32.693Z,14.27
2022-09-29T11:13:33.623Z,14.30
2022-09-29T11:14:32.664Z,14.33
2022-09-29T11:15:32.647Z,14.38
2022-09-29T11:16:32.690Z,14.44
2022-09-29T11:17:32.612Z,14.51
2022-09-29T11:18:32.624Z,14.53
2022-09-29T11:19:32.596Z,14.59
2022-09-29T11:20:32.575Z,14.71
2022-09-29T11:21:32.565Z,14.87
2022-09-29T11:22:32.547Z,15.07
2022-09-29T11:23:32.579Z,15.12
2022-09-29T11:24:32.533Z,15.23
2022-09-29T11:25:32.508Z,15.38
2022-09-29T11:26:32.497Z,15.41
2022-09-29T11:27:32.485Z,15.41
2022-09-29T11:28:32.489Z,15.32
2022-09-29T11:29:32.465Z,15.33
2022-09-29T11:30:32.478Z,15.47
2022-09-29T11:31:32.428Z,15.51
2022-09-29T11:32:32.423Z,15.59
2022-09-29T11:33:32.410Z,15.63
2022-09-29T11:34:33.347Z,15.73
2022-09-29T11:35:32.390Z,15.87
2022-09-29T11:36:32.366Z,15.73
2022-09-29T11:37:36.135Z,15.68
2022-09-29T11:38:33.331Z,15.72
2022-09-29T11:39:32.322Z,15.90
2022-09-29T11:40:32.313Z,15.83
2022-09-29T11:41:32.293Z,15.76
2022-09-29T11:42:33.243Z,15.68
2022-09-29T11:43:32.271Z,15.81
2022-09-29T11:44:32.263Z,16.00
2022-09-29T11:45:32.245Z,16.09
2022-09-29T11:46:33.182Z,16.13
2022-09-29T11:47:32.325Z,16.05
2022-09-29T11:48:32.204Z,16.14
2022-09-29T11:49:32.185Z,16.09
2022-09-29T11:50:32.207Z,16.00
2022-09-29T11:51:32.166Z,15.85
2022-09-29T11:52:32.166Z,15.77
2022-09-29T11:53:32.143Z,15.66
2022-09-29T11:54:32.143Z,15.69
2022-09-29T11:55:32.109Z,15.56
2022-09-29T11:56:32.108Z,15.63
2022-09-29T11:57:32.080Z,15.62
2022-09-29T11:58:32.068Z,15.59
2022-09-29T11:59:32.058Z,15.62
2022-09-29T12:00:32.040Z,15.69
2022-09-29T12:01:32.038Z,15.80
2022-09-29T12:02:32.107Z,15.80
2022-09-29T12:03:32.009Z,15.91
2022-09-29T12:04:31.993Z,16.02
2022-09-29T12:05:31.982Z,16.09
2022-09-29T12:06:31.973Z,16.06
2022-09-29T12:07:31.954Z,16.02
2022-09-29T12:08:31.942Z,16.03
2022-09-29T12:09:31.969Z,16.08
2022-09-29T12:10:31.912Z,15.99
2022-09-29T12:11:50.797Z,15.83
2022-09-29T12:12:33.835Z,15.70
2022-09-29T12:13:31.871Z,15.69
2022-09-29T12:14:31.863Z,15.78
2022-09-29T12:15:33.338Z,15.83
2022-09-29T12:16:31.884Z,15.80
2022-09-29T12:17:31.824Z,15.76
2022-09-29T12:18:31.808Z,15.59
2022-09-29T12:19:32.752Z,15.54
2022-09-29T12:20:31.783Z,15.59
2022-09-29T12:21:31.778Z,15.40
2022-09-29T12:22:34.510Z,15.30
2022-09-29T12:23:31.738Z,15.43
2022-09-29T12:24:31.727Z,15.58
2022-09-29T12:25:31.710Z,15.63
2022-09-29T12:26:31.708Z,15.60
2022-09-29T12:27:31.678Z,15.69
2022-09-29T12:28:31.678Z,15.72
2022-09-29T12:29:31.649Z,15.72
2022-09-29T12:30:31.700Z,15.69
2022-09-29T12:31:31.639Z,15.47
2022-09-29T12:32:31.619Z,15.17
2022-09-29T12:33:31.600Z,14.96
2022-09-29T12:34:31.599Z,14.79
2022-09-29T12:35:31.570Z,14.69
2022-09-29T12:36:31.571Z,14.67
2022-09-29T12:37:31.551Z,14.61
2022-09-29T12:38:31.543Z,14.52
2022-09-29T12:39:31.527Z,14.36
2022-09-29T12:40:31.520Z,14.23
2022-09-29T12:41:31.503Z,14.23
2022-09-29T12:42:31.516Z,14.23
2022-09-29T12:43:31.474Z,14.26
2022-09-29T12:44:31.474Z,14.31
2022-09-29T12:45:34.981Z,14.41
2022-09-29T12:46:32.349Z,14.63
2022-09-29T12:47:32.234Z,14.78
2022-09-29T12:48:32.225Z,15.03
2022-09-29T12:49:31.536Z,15.15
2022-09-29T12:50:31.387Z,15.33
2022-09-29T12:51:31.405Z,15.33
2022-09-29T12:52:31.401Z,15.45
2022-09-29T12:53:32.156Z,15.43
2022-09-29T12:54:31.827Z,15.25
2022-09-29T12:55:31.595Z,15.25
2022-09-29T12:56:32.278Z,15.36
2022-09-29T12:57:31.277Z,15.48
2022-09-29T12:58:31.279Z,15.43
2022-09-29T12:59:31.251Z,15.32
2022-09-29T13:00:31.249Z,15.30
2022-09-29T13:01:31.277Z,15.14
2022-09-29T13:02:31.254Z,15.14
2022-09-29T13:03:31.200Z,15.32
2022-09-29T13:04:31.189Z,15.30
2022-09-29T13:05:31.992Z,15.32
2022-09-29T13:06:33.150Z,15.44
2022-09-29T13:07:31.960Z,15.62